createdAt,value
2023-05-08T00:00:59.133Z,98957.00
2023-05-08T00:03:44.756Z,99055.22
2023-05-08T00:06:31.088Z,99058.25
2023-05-08T00:09:16.488Z,99037.69
2023-05-08T00:12:01.800Z,98856.72
2023-05-08T00:14:47.169Z,99053.16
2023-05-08T00:17:33.088Z,99054.47
2023-05-08T00:20:18.581Z,98858.31
2023-05-08T00:23:04.277Z,99012.84
2023-05-08T00:25:49.991Z,98976.84
2023-05-08T00:28:35.256Z,99056.41
2023-05-08T00:31:20.610Z,99037.06
2023-05-08T00:34:06.041Z,98842.16
2023-05-08T00:36:51.532Z,99049.34
2023-05-08T00:39:36.718Z,99060.88
2023-05-08T00:42:22.196Z,98862.66
2023-05-08T00:45:08.152Z,99024.63
2023-05-08T00:47:54.020Z,98963.38
2023-05-08T00:50:39.288Z,98907.22
2023-05-08T00:53:27.265Z,99028.84
2023-05-08T00:56:15.398Z,99017.53
2023-05-08T00:59:01.572Z,99073.56
2023-05-08T01:01:47.849Z,98833.34
2023-05-08T01:04:34.839Z,99095.34
2023-05-08T01:07:21.126Z,99004.50
2023-05-08T01:10:07.280Z,99067.41
2023-05-08T01:13:49.428Z,99072.06
2023-05-08T01:17:02.029Z,99073.81
2023-05-08T01:20:15.292Z,99079.31
2023-05-08T01:23:42.904Z,99078.88
2023-05-08T01:26:42.246Z,99114.34
2023-05-08T01:29:49.224Z,99093.63
2023-05-08T01:32:55.367Z,99002.13
2023-05-08T01:35:50.629Z,99083.88
2023-05-08T01:39:03.132Z,99016.06
2023-05-08T01:42:03.122Z,98946.66
2023-05-08T01:44:54.957Z,99047.78
2023-05-08T01:47:42.212Z,98917.41
2023-05-08T01:50:35.221Z,99111.16
2023-05-08T01:53:28.682Z,98905.78
2023-05-08T01:56:17.500Z,99062.63
2023-05-08T01:59:06.261Z,98959.31
2023-05-08T02:01:55.170Z,98910.31
2023-05-08T02:04:42.799Z,98874.66
2023-05-08T02:07:28.714Z,99038.34
2023-05-08T02:10:16.534Z,99074.81
2023-05-08T02:13:03.648Z,99089.00
2023-05-08T02:15:53.283Z,98958.38
2023-05-08T02:18:43.795Z,98921.97
2023-05-08T02:21:31.643Z,99121.97
2023-05-08T02:24:17.588Z,99135.78
2023-05-08T02:27:04.890Z,98988.41
2023-05-08T02:29:52.897Z,99114.75
2023-05-08T02:32:40.852Z,99020.19
2023-05-08T02:35:29.550Z,99109.44
2023-05-08T02:38:18.002Z,99131.75
2023-05-08T02:41:06.594Z,99135.03
2023-05-08T02:43:52.786Z,98976.63
2023-05-08T02:46:58.451Z,99147.34
2023-05-08T02:49:50.391Z,98986.56
2023-05-08T02:52:43.189Z,98928.78
2023-05-08T02:55:50.605Z,99078.53
2023-05-08T02:59:13.256Z,99147.22
2023-05-08T03:02:04.883Z,99140.47
2023-05-08T03:04:55.347Z,99136.78
2023-05-08T03:07:43.372Z,99149.72
2023-05-08T03:10:33.958Z,99058.75
2023-05-08T03:13:21.352Z,99110.59
2023-05-08T03:16:16.379Z,98992.06
2023-05-08T03:19:05.527Z,99150.19
2023-05-08T03:21:53.254Z,99013.81
2023-05-08T03:24:41.216Z,99137.25
2023-05-08T03:27:29.401Z,99071.81
2023-05-08T03:30:16.790Z,99065.56
2023-05-08T03:33:08.451Z,98947.63
2023-05-08T03:35:54.414Z,99154.22
2023-05-08T03:38:40.806Z,99114.50
2023-05-08T03:41:27.080Z,99134.84
2023-05-08T03:44:14.228Z,99105.09
2023-05-08T03:47:01.030Z,99153.72
2023-05-08T03:49:48.090Z,98959.81
2023-05-08T03:52:34.553Z,99192.22
2023-05-08T03:55:20.257Z,98955.91
2023-05-08T03:58:08.691Z,99189.88
2023-05-08T04:01:07.782Z,98989.22
2023-05-08T04:04:06.200Z,99170.13
2023-05-08T04:06:59.704Z,99017.44
2023-05-08T04:10:12.188Z,99091.34
2023-05-08T04:13:08.737Z,99152.97
2023-05-08T04:16:11.046Z,99154.91
2023-05-08T04:19:10.952Z,99008.81
2023-05-08T04:22:03.209Z,99196.88
2023-05-08T04:24:51.032Z,99160.97
2023-05-08T04:27:38.600Z,99111.28
2023-05-08T04:30:26.026Z,99216.63
2023-05-08T04:33:12.986Z,99195.38
2023-05-08T04:36:02.510Z,98994.50
2023-05-08T04:38:48.534Z,99002.94
2023-05-08T04:41:35.195Z,99175.97
2023-05-08T04:44:20.759Z,99246.31
2023-05-08T04:47:06.206Z,99164.84
2023-05-08T04:49:54.543Z,99205.50
2023-05-08T04:52:41.395Z,99203.56
2023-05-08T04:55:26.807Z,99044.22
2023-05-08T04:58:13.684Z,99198.25
2023-05-08T05:01:03.528Z,99235.13
2023-05-08T05:03:49.899Z,99071.47
2023-05-08T05:06:35.213Z,99218.09
2023-05-08T05:09:20.836Z,99232.44
2023-05-08T05:12:07.416Z,99015.75
2023-05-08T05:14:54.033Z,99174.47
2023-05-08T05:17:40.782Z,99223.66
2023-05-08T05:20:26.716Z,99027.72
2023-05-08T05:23:12.624Z,99087.03
2023-05-08T05:25:58.612Z,99222.44
2023-05-08T05:28:44.654Z,99249.69
2023-05-08T05:31:30.399Z,99237.06
2023-05-08T05:34:15.999Z,99239.31
2023-05-08T05:37:01.749Z,99243.75
2023-05-08T05:39:47.215Z,99243.47
2023-05-08T05:42:32.621Z,99131.31
2023-05-08T05:45:18.886Z,99250.63
2023-05-08T05:48:05.914Z,99053.16
2023-05-08T05:50:52.479Z,99065.28
2023-05-08T05:53:39.119Z,99234.09
2023-05-08T05:56:24.462Z,99192.56
2023-05-08T05:59:10.003Z,99092.34
2023-05-08T06:01:58.078Z,99089.09
2023-05-08T06:04:43.483Z,99054.06
2023-05-08T06:07:28.936Z,99260.94
2023-05-08T06:10:14.872Z,99295.44
2023-05-08T06:13:00.321Z,99173.50
2023-05-08T06:15:46.802Z,99075.34
2023-05-08T06:18:32.482Z,99228.84
2023-05-08T06:21:18.671Z,99220.13
2023-05-08T06:24:04.054Z,99210.59
2023-05-08T06:26:49.656Z,99288.31
2023-05-08T06:29:35.063Z,99269.72
2023-05-08T06:32:21.768Z,99174.13
2023-05-08T06:35:07.737Z,99118.00
2023-05-08T06:37:53.419Z,99216.28
2023-05-08T06:40:43.632Z,99275.81
2023-05-08T06:43:30.731Z,99105.16
2023-05-08T06:46:17.779Z,99094.31
2023-05-08T06:49:07.298Z,99275.81
2023-05-08T06:51:57.668Z,99227.31
2023-05-08T06:54:45.043Z,99280.44
2023-05-08T06:57:31.816Z,99259.59
2023-05-08T07:00:17.936Z,99234.47
2023-05-08T07:03:03.993Z,99237.50
2023-05-08T07:05:49.502Z,99243.66
2023-05-08T07:08:35.209Z,99216.88
2023-05-08T07:11:20.532Z,99100.38
2023-05-08T07:14:05.765Z,99305.75
2023-05-08T07:16:51.338Z,99283.03
2023-05-08T07:19:38.067Z,99302.16
2023-05-08T07:22:23.903Z,99285.06
2023-05-08T07:25:09.907Z,99319.88
2023-05-08T07:27:55.642Z,99311.91
2023-05-08T07:30:41.362Z,99265.09
2023-05-08T07:33:26.796Z,99126.91
2023-05-08T07:36:12.552Z,99118.53
2023-05-08T07:38:58.286Z,99322.72
2023-05-08T07:41:43.837Z,99318.69
2023-05-08T07:44:37.572Z,99123.91
2023-05-08T07:47:29.535Z,99319.22
2023-05-08T07:50:15.205Z,99129.09
2023-05-08T07:53:01.791Z,99249.66
2023-05-08T07:55:47.149Z,99320.25
2023-05-08T07:58:32.598Z,99318.34
2023-05-08T08:01:18.266Z,99309.88
2023-05-08T08:04:04.470Z,99326.25
2023-05-08T08:06:50.083Z,99251.25
2023-05-08T08:09:35.576Z,99334.13
2023-05-08T08:12:21.438Z,99179.84
2023-05-08T08:15:07.485Z,99328.69
2023-05-08T08:17:53.033Z,99343.66
2023-05-08T08:20:38.808Z,99327.13
2023-05-08T08:23:24.195Z,99318.41
2023-05-08T08:26:09.649Z,99354.09
2023-05-08T08:28:55.081Z,99132.53
2023-05-08T08:31:40.875Z,99286.53
2023-05-08T08:34:26.458Z,99329.03
2023-05-08T08:37:13.993Z,99257.94
2023-05-08T08:40:00.030Z,99134.63
2023-05-08T08:42:46.112Z,99183.25
2023-05-08T08:45:31.821Z,99292.69
2023-05-08T08:48:19.027Z,99342.91
2023-05-08T08:51:08.855Z,99175.59
2023-05-08T08:54:11.788Z,99184.91
2023-05-08T08:57:00.841Z,99229.06
2023-05-08T08:59:46.482Z,99339.63
2023-05-08T09:02:32.352Z,99263.03
2023-05-08T09:05:18.443Z,99193.59
2023-05-08T09:08:04.741Z,99351.56
2023-05-08T09:10:54.761Z,99325.19
2023-05-08T09:13:40.428Z,99354.59
2023-05-08T09:16:28.471Z,99132.16
2023-05-08T09:19:16.014Z,99337.00
2023-05-08T09:22:01.914Z,99189.06
2023-05-08T09:25:00.519Z,99399.97
2023-05-08T09:27:45.994Z,99289.97
2023-05-08T09:30:31.360Z,99363.94
2023-05-08T09:33:17.474Z,99272.25
2023-05-08T09:36:03.228Z,99375.47
2023-05-08T09:38:48.940Z,99217.13
2023-05-08T09:41:34.452Z,99371.22
2023-05-08T09:44:20.581Z,99344.75
2023-05-08T09:47:11.210Z,99179.22
2023-05-08T09:50:08.643Z,99337.00
2023-05-08T09:52:54.185Z,99251.94
2023-05-08T09:55:47.360Z,99371.03
2023-05-08T09:58:43.896Z,99327.84
2023-05-08T10:01:35.924Z,99395.84
2023-05-08T10:04:38.033Z,99177.72
2023-05-08T10:07:34.873Z,99274.69
2023-05-08T10:10:28.523Z,99327.78
2023-05-08T10:13:14.757Z,99371.69
2023-05-08T10:16:01.992Z,99370.03
2023-05-08T10:18:50.963Z,99374.19
2023-05-08T10:21:42.709Z,99365.44
2023-05-08T10:24:33.703Z,99331.53
2023-05-08T10:27:44.313Z,99371.09
2023-05-08T10:30:31.960Z,99181.09
2023-05-08T10:33:24.025Z,99330.53
2023-05-08T10:36:10.253Z,99373.69
2023-05-08T10:38:58.729Z,99381.88
2023-05-08T10:41:45.579Z,99366.84
2023-05-08T10:44:32.335Z,99325.53
2023-05-08T10:47:25.052Z,99374.94
2023-05-08T10:50:26.636Z,99383.97
2023-05-08T10:53:19.720Z,99387.28
2023-05-08T10:56:06.800Z,99170.00
2023-05-08T10:58:56.778Z,99183.41
2023-05-08T11:01:42.150Z,99300.72
2023-05-08T11:04:29.169Z,99386.63
2023-05-08T11:07:14.952Z,99313.41
2023-05-08T11:10:14.533Z,99187.88
2023-05-08T11:13:02.460Z,99388.53
2023-05-08T11:15:51.761Z,99352.91
2023-05-08T11:18:48.514Z,99256.44
2023-05-08T11:21:35.029Z,99369.63
2023-05-08T11:24:34.472Z,99390.69
2023-05-08T11:27:35.753Z,99390.69
2023-05-08T11:30:37.292Z,99388.13
2023-05-08T11:33:30.616Z,99269.53
2023-05-08T11:36:20.588Z,99391.53
2023-05-08T11:39:16.072Z,99409.38
2023-05-08T11:42:30.292Z,99391.69
2023-05-08T11:45:19.057Z,99377.97
2023-05-08T11:48:05.032Z,99236.22
2023-05-08T11:50:51.389Z,99190.69
2023-05-08T11:53:37.780Z,99382.47
2023-05-08T11:56:23.126Z,99402.00
2023-05-08T11:59:09.503Z,99387.34
2023-05-08T12:04:47.565Z,99193.41
2023-05-08T12:07:33.662Z,99378.97
2023-05-08T12:10:20.620Z,99388.41
2023-05-08T12:13:19.899Z,99396.59
2023-05-08T12:16:05.848Z,99358.97
2023-05-08T12:18:52.508Z,99243.06
2023-05-08T12:21:38.324Z,99377.00
2023-05-08T12:24:26.261Z,99368.16
2023-05-08T12:27:13.051Z,99324.38
2023-05-08T12:29:58.713Z,99376.22
2023-05-08T12:32:44.638Z,99377.06
2023-05-08T12:35:30.888Z,99378.69
2023-05-08T12:38:16.598Z,99374.84
2023-05-08T12:41:04.410Z,99210.59
2023-05-08T12:43:49.807Z,99364.00
2023-05-08T12:46:36.191Z,99364.22
2023-05-08T12:49:25.837Z,99376.22
2023-05-08T12:52:15.763Z,99381.41
2023-05-08T12:55:01.531Z,99306.00
2023-05-08T12:57:47.088Z,99371.84
2023-05-08T13:00:37.413Z,99324.06
2023-05-08T13:03:29.038Z,99207.03
2023-05-08T13:06:22.299Z,99165.13
2023-05-08T13:09:09.117Z,99377.56
2023-05-08T13:11:55.534Z,99191.84
2023-05-08T13:14:40.851Z,99374.97
2023-05-08T13:17:26.232Z,99213.88
2023-05-08T13:20:14.054Z,99333.41
2023-05-08T13:22:59.731Z,99311.94
2023-05-08T13:25:45.228Z,99242.09
2023-05-08T13:28:30.710Z,99289.22
2023-05-08T13:31:15.989Z,99219.59
2023-05-08T13:34:02.150Z,99365.56
2023-05-08T13:36:47.755Z,99168.97
2023-05-08T13:39:37.253Z,99219.66
2023-05-08T13:42:22.692Z,99204.47
2023-05-08T13:45:10.839Z,99365.06
2023-05-08T13:47:56.201Z,99226.53
2023-05-08T13:50:41.607Z,99168.19
2023-05-08T13:53:29.968Z,99318.16
2023-05-08T13:56:15.645Z,99211.84
2023-05-08T13:59:01.424Z,99375.47
2023-05-08T14:01:46.847Z,99288.75
2023-05-08T14:04:33.353Z,99318.75
2023-05-08T14:07:18.818Z,99172.63
2023-05-08T14:10:05.134Z,99358.25
2023-05-08T14:12:50.818Z,99360.47
2023-05-08T14:15:38.407Z,99213.72
2023-05-08T14:18:23.919Z,99346.22
2023-05-08T14:21:09.512Z,99298.34
2023-05-08T14:23:55.817Z,99342.00
2023-05-08T14:26:42.553Z,99360.94
2023-05-08T14:29:28.112Z,99173.28
2023-05-08T14:32:14.254Z,99359.16
2023-05-08T14:34:59.632Z,99359.56
2023-05-08T14:37:45.827Z,99348.16
2023-05-08T14:40:31.096Z,99341.81
2023-05-08T14:43:19.169Z,99360.03
2023-05-08T14:46:05.589Z,99360.75
2023-05-08T14:48:51.475Z,99217.22
2023-05-08T14:51:37.400Z,99372.25
2023-05-08T14:54:23.432Z,99231.38
2023-05-08T14:57:09.189Z,99363.56
2023-05-08T14:59:57.011Z,99355.28
2023-05-08T15:02:43.955Z,99320.34
2023-05-08T15:05:29.676Z,99367.63
2023-05-08T15:08:15.723Z,99356.38
2023-05-08T15:11:01.315Z,99361.91
2023-05-08T15:13:46.614Z,99205.72
2023-05-08T15:16:32.403Z,99186.88
2023-05-08T15:19:17.816Z,99306.25
2023-05-08T15:22:03.798Z,99326.47
2023-05-08T15:24:49.301Z,99362.31
2023-05-08T15:27:34.878Z,99331.84
2023-05-08T15:30:21.031Z,99357.84
2023-05-08T15:33:06.713Z,99359.91
2023-05-08T15:35:52.119Z,99357.84
2023-05-08T15:38:37.527Z,99227.63
2023-05-08T15:41:23.336Z,99354.72
2023-05-08T15:44:09.563Z,99343.22
2023-05-08T15:46:54.840Z,99185.63
2023-05-08T15:49:40.061Z,99319.88
2023-05-08T15:52:25.607Z,99325.25
2023-05-08T15:55:12.426Z,99365.66
2023-05-08T15:57:58.111Z,99370.81
2023-05-08T16:00:45.501Z,99310.28
2023-05-08T16:03:32.601Z,99176.28
2023-05-08T16:06:18.362Z,99199.25
2023-05-08T16:09:03.882Z,99182.19
2023-05-08T16:11:49.553Z,99324.91
2023-05-08T16:14:36.669Z,99300.97
2023-05-08T16:17:22.310Z,99375.25
2023-05-08T16:20:10.563Z,99367.16
2023-05-08T16:22:56.316Z,99274.69
2023-05-08T16:25:41.540Z,98896.16
2023-05-08T16:28:28.002Z,99355.88
2023-05-08T16:31:13.400Z,99360.31
2023-05-08T16:33:58.666Z,99373.06
2023-05-08T16:36:44.196Z,99174.53
2023-05-08T16:39:29.588Z,99225.41
2023-05-08T16:42:15.155Z,99176.69
2023-05-08T16:45:00.509Z,99221.38
2023-05-08T16:47:46.128Z,99183.50
2023-05-08T16:50:31.415Z,99358.56
2023-05-08T16:53:16.769Z,99311.44
2023-05-08T16:56:02.095Z,99278.81
2023-05-08T16:58:47.424Z,99212.97
2023-05-08T17:01:34.083Z,99371.28
2023-05-08T17:04:19.594Z,99369.66
2023-05-08T17:07:05.826Z,99364.84
2023-05-08T17:09:56.252Z,99223.31
2023-05-08T17:12:42.104Z,99186.56
2023-05-08T17:15:27.430Z,99195.47
2023-05-08T17:18:12.820Z,99374.81
2023-05-08T17:20:58.064Z,99332.91
2023-05-08T17:23:45.588Z,99296.50
2023-05-08T17:26:33.961Z,99390.69
2023-05-08T17:29:19.579Z,99388.44
2023-05-08T17:32:05.210Z,99307.75
2023-05-08T17:34:50.872Z,99198.19
2023-05-08T17:37:36.288Z,99396.63
2023-05-08T17:40:21.778Z,99216.66
2023-05-08T17:43:08.654Z,99241.47
2023-05-08T17:45:54.661Z,99223.59
2023-05-08T17:48:40.372Z,99394.84
2023-05-08T17:51:25.859Z,99404.81
2023-05-08T17:54:10.974Z,99400.97
2023-05-08T17:56:56.397Z,99235.78
2023-05-08T17:59:42.255Z,99392.91
2023-05-08T18:02:27.641Z,99401.91
2023-05-08T18:05:13.564Z,99247.72
2023-05-08T18:08:00.257Z,99273.97
2023-05-08T18:10:45.721Z,99281.19
2023-05-08T18:13:31.440Z,99233.91
2023-05-08T18:16:18.892Z,99341.44
2023-05-08T18:19:04.901Z,99404.56
2023-05-08T18:21:50.653Z,99410.41
2023-05-08T18:24:36.752Z,99428.91
2023-05-08T18:27:22.821Z,99421.09
2023-05-08T18:30:09.558Z,99382.25
2023-05-08T18:32:55.717Z,99431.16
2023-05-08T18:35:41.129Z,99460.81
2023-05-08T18:38:26.524Z,99423.13
2023-05-08T18:41:11.941Z,99414.50
2023-05-08T18:43:57.402Z,99454.88
2023-05-08T18:46:42.969Z,99437.97
2023-05-08T18:49:29.358Z,99388.03
2023-05-08T18:52:15.288Z,99399.69
2023-05-08T18:55:01.023Z,99452.44
2023-05-08T18:57:46.809Z,99377.91
2023-05-08T19:00:33.216Z,99352.31
2023-05-08T19:03:19.049Z,99306.84
2023-05-08T19:06:05.234Z,99469.59
2023-05-08T19:08:52.173Z,99430.19
2023-05-08T19:11:38.666Z,99460.66
2023-05-08T19:14:24.190Z,99454.72
2023-05-08T19:17:09.678Z,99369.59
2023-05-08T19:19:55.159Z,99264.34
2023-05-08T19:22:40.724Z,99273.59
2023-05-08T19:25:26.549Z,99464.00
2023-05-08T19:28:12.079Z,99463.56
2023-05-08T19:30:57.522Z,99272.97
2023-05-08T19:33:42.785Z,99392.50
2023-05-08T19:36:28.279Z,99438.59
2023-05-08T19:39:14.695Z,99449.81
2023-05-08T19:42:00.190Z,99445.00
2023-05-08T19:44:45.792Z,99416.59
2023-05-08T19:47:31.468Z,99380.22
2023-05-08T19:50:20.488Z,99289.50
2023-05-08T19:53:06.236Z,99347.72
2023-05-08T19:55:51.864Z,99443.31
2023-05-08T19:58:37.278Z,99255.75
2023-05-08T20:01:22.930Z,99435.25
2023-05-08T20:04:08.384Z,99427.22
2023-05-08T20:06:53.935Z,99457.81
2023-05-08T20:09:39.551Z,99249.16
2023-05-08T20:12:25.396Z,99402.56
2023-05-08T20:15:12.115Z,99435.25
2023-05-08T20:17:59.201Z,99272.94
2023-05-08T20:20:46.127Z,99447.09
2023-05-08T20:23:32.336Z,99459.06
2023-05-08T20:26:18.312Z,99415.09
2023-05-08T20:29:03.950Z,99273.88
2023-05-08T20:31:50.275Z,99348.69
2023-05-08T20:34:36.375Z,99432.44
2023-05-08T20:37:22.150Z,99225.03
2023-05-08T20:40:08.358Z,99429.78
2023-05-08T20:42:54.167Z,99243.53
2023-05-08T20:45:40.414Z,99420.50
2023-05-08T20:48:25.743Z,99230.66
2023-05-08T20:51:11.177Z,99230.22
2023-05-08T20:53:56.569Z,99423.41
2023-05-08T20:56:42.606Z,99417.44
2023-05-08T20:59:28.334Z,99418.31
2023-05-08T21:02:13.956Z,99407.66
2023-05-08T21:05:00.084Z,99378.72
2023-05-08T21:07:45.853Z,99264.53
2023-05-08T21:10:31.457Z,99376.31
2023-05-08T21:13:16.768Z,99229.56
2023-05-08T21:16:02.164Z,99426.97
2023-05-08T21:18:47.584Z,99228.28
2023-05-08T21:21:33.064Z,99456.03
2023-05-08T21:24:18.500Z,99273.56
2023-05-08T21:27:03.780Z,99228.28
2023-05-08T21:29:48.977Z,99396.03
2023-05-08T21:32:34.467Z,99416.16
2023-05-08T21:35:19.870Z,99300.81
2023-05-08T21:38:05.787Z,99354.44
2023-05-08T21:40:51.322Z,99243.00
2023-05-08T21:43:37.239Z,99422.50
2023-05-08T21:46:22.743Z,99443.56
2023-05-08T21:49:08.113Z,99223.38
2023-05-08T21:51:53.555Z,99377.66
2023-05-08T21:54:38.968Z,99386.91
2023-05-08T21:57:24.317Z,99394.13
2023-05-08T22:00:10.299Z,99412.97
2023-05-08T22:03:05.123Z,99307.22
2023-05-08T22:05:51.512Z,99247.78
2023-05-08T22:08:36.840Z,99219.00
2023-05-08T22:11:22.322Z,99354.75
2023-05-08T22:14:07.674Z,99412.59
2023-05-08T22:16:53.098Z,99396.88
2023-05-08T22:19:38.486Z,99404.69
2023-05-08T22:22:23.890Z,99218.16
2023-05-08T22:25:09.558Z,99395.09
2023-05-08T22:27:55.203Z,99412.31
2023-05-08T22:30:40.443Z,99354.13
2023-05-08T22:33:25.930Z,99217.44
2023-05-08T22:36:11.412Z,99409.38
2023-05-08T22:38:56.892Z,99427.13
2023-05-08T22:41:42.284Z,99264.16
2023-05-08T22:44:28.319Z,99411.19
2023-05-08T22:47:14.091Z,99246.41
2023-05-08T22:50:00.450Z,99214.69
2023-05-08T22:52:46.049Z,99411.94
2023-05-08T22:55:31.399Z,99232.88
2023-05-08T22:58:16.945Z,99209.06
2023-05-08T23:01:02.369Z,99343.97
2023-05-08T23:03:47.818Z,99369.75
2023-05-08T23:06:33.520Z,99391.56
2023-05-08T23:09:19.011Z,99257.53
2023-05-08T23:12:04.484Z,99399.56
2023-05-08T23:14:49.783Z,99364.53
2023-05-08T23:17:35.287Z,99399.75
2023-05-08T23:20:20.819Z,99404.81
2023-05-08T23:23:07.117Z,99352.91
2023-05-08T23:25:52.660Z,99405.84
2023-05-08T23:28:38.231Z,99200.50
2023-05-08T23:31:23.416Z,99396.69
2023-05-08T23:34:09.637Z,99386.72
2023-05-08T23:36:55.730Z,99205.50
2023-05-08T23:39:41.413Z,99357.31
2023-05-08T23:42:28.120Z,99400.84
2023-05-08T23:45:13.813Z,99388.63
2023-05-08T23:47:59.784Z,99393.84
2023-05-08T23:50:45.100Z,99266.88
2023-05-08T23:53:30.500Z,99269.06
2023-05-08T23:56:16.157Z,99372.13
2023-05-08T23:59:01.412Z,99233.34
